Stallovarre — LHBG — position and weather

sailwx.info

Track history (hours):
 
Tides and Currents Weather Stations Pressure Air Temp Water Temp Dewpoint Dewpoint Depression Visibility Wind Speed Wind Dir Waves Ship Positions

Stallovarre

Last reported at 2015-Sep-02 14:33 UTC. Time now 2015-Sep-02 14:52 UTC.
Position N 63°39' E 009°41'.

Length 54 m; draft 3.5 m.

MMSI: 257374400.

Date/timePositionNaut miles runAvg speedWind from/ knotsBaromVisibWave heightAir tempDewpointWater temp
2015-Sep-02 14:33N 63°39' E 009°41'0 0.1
2015-Sep-02 13:33N 63°39' E 009°41'0 0.0
2015-Sep-02 12:33N 63°39' E 009°41'0 0.1
2015-Sep-02 11:34N 63°39' E 009°41'0 0.0
2015-Sep-02 10:33N 63°39' E 009°41'0 0.0
2015-Sep-02 09:34N 63°39' E 009°41'0 0.1
2015-Sep-02 08:33N 63°39' E 009°41'0 0.0
2015-Sep-02 07:33N 63°39' E 009°41'0 0.0
2015-Sep-02 06:33N 63°39' E 009°41'0 0.1
2015-Sep-02 05:34N 63°39' E 009°41'3 2.6
2015-Sep-02 04:33N 63°41' E 009°40'0 0.0
2015-Sep-02 03:33N 63°41' E 009°40'0 0.0
2015-Sep-02 02:33N 63°41' E 009°40'0 0.0
2015-Sep-02 01:33N 63°41' E 009°40'0 0.0
2015-Sep-02 00:33N 63°41' E 009°40'0 0.0
2015-Sep-01 23:33N 63°41' E 009°40'0 0.0
2015-Sep-01 22:33N 63°41' E 009°40'0 0.0
2015-Sep-01 21:33N 63°41' E 009°40'0 0.0
2015-Sep-01 20:33N 63°41' E 009°40'0 0.0
2015-Sep-01 19:33N 63°41' E 009°40'0 0.0
2015-Sep-01 18:32N 63°41' E 009°40'0 0.0
2015-Sep-01 17:32N 63°41' E 009°40'0 0.0
2015-Sep-01 16:32N 63°41' E 009°40'2 2.5
2015-Sep-01 15:33N 63°39' E 009°41'0 0.0
2015-Sep-01 14:33N 63°39' E 009°41'0 0.0
2015-Sep-01 13:33N 63°39' E 009°41'0 0.0
2015-Sep-01 12:34N 63°39' E 009°41'0 0.1
2015-Sep-01 11:33N 63°39' E 009°41'0 0.2
2015-Sep-01 10:33N 63°38' E 009°41'0 0.4
2015-Sep-01 09:33N 63°39' E 009°41'0 0.2
2015-Sep-01 08:33N 63°39' E 009°41'0 0.0
2015-Sep-01 07:33N 63°39' E 009°41'0 0.1
2015-Sep-01 06:34N 63°39' E 009°41'0 0.0
2015-Sep-01 05:33N 63°39' E 009°41'3 2.5
2015-Sep-01 04:33N 63°41' E 009°40'0 0.0
2015-Sep-01 03:33N 63°41' E 009°40'0 0.0
2015-Sep-01 02:33N 63°41' E 009°40'0 0.0
2015-Sep-01 01:33N 63°41' E 009°40'0 0.0
2015-Sep-01 00:33N 63°41' E 009°40'0 0.0
2015-Aug-31 23:33N 63°41' E 009°40'0 0.0
2015-Aug-31 22:33N 63°41' E 009°40'0 0.0
2015-Aug-31 21:33N 63°41' E 009°40'0 0.0
2015-Aug-31 20:33N 63°41' E 009°40'0 0.0
2015-Aug-31 19:33N 63°41' E 009°40'0 0.0
2015-Aug-31 18:33N 63°41' E 009°40'0 0.0
2015-Aug-31 17:33N 63°41' E 009°40'0 0.0
2015-Aug-31 16:33N 63°41' E 009°40'2 2.5
2015-Aug-31 15:34N 63°39' E 009°41'0 0.0
2015-Aug-31 14:33N 63°39' E 009°41'0 0.0
2015-Aug-31 13:33N 63°39' E 009°41'0 0.1
2015-Aug-31 12:33N 63°39' E 009°41'0 0.2
2015-Aug-31 11:33N 63°39' E 009°41'0 0.2
2015-Aug-31 10:33N 63°39' E 009°41'0 0.0
2015-Aug-31 09:34N 63°39' E 009°41'0 0.1
2015-Aug-31 08:34N 63°39' E 009°41'0 0.0
2015-Aug-31 07:33N 63°39' E 009°41'0 0.0
2015-Aug-31 06:33N 63°39' E 009°41'0 0.2
2015-Aug-31 05:33N 63°39' E 009°41'1 0.9
2015-Aug-31 04:33N 63°39' E 009°41'2 1.8
2015-Aug-31 03:33N 63°41' E 009°40'0 0.0
2015-Aug-31 02:33N 63°41' E 009°40'0 0.0
2015-Aug-31 01:33N 63°41' E 009°40'0 0.0
2015-Aug-31 00:33N 63°41' E 009°40'0 0.0
2015-Aug-30 23:33N 63°41' E 009°40'0 0.0
2015-Aug-30 22:33N 63°41' E 009°40'0 0.0
2015-Aug-30 21:33N 63°41' E 009°40'0 0.0
2015-Aug-30 20:33N 63°41' E 009°40'0 0.0
2015-Aug-30 19:33N 63°41' E 009°40'0 0.0
2015-Aug-30 18:33N 63°41' E 009°40'3 2.6
2015-Aug-30 17:34N 63°39' E 009°41'0 0.2
2015-Aug-30 16:33N 63°38' E 009°41'0 0.1
2015-Aug-30 15:33N 63°39' E 009°41'0 0.2
2015-Aug-30 14:33N 63°39' E 009°41'0 0.1
2015-Aug-30 13:33N 63°39' E 009°41'0 0.0
2015-Aug-30 12:33N 63°39' E 009°41'3 2.5
2015-Aug-30 11:31N 63°41' E 009°40'0 0.0
2015-Aug-30 10:31N 63°41' E 009°40'0 0.0
2015-Aug-30 09:31N 63°41' E 009°40'0 0.0
2015-Aug-30 08:31N 63°41' E 009°40'0 0.0
2015-Aug-30 07:31N 63°41' E 009°40'0 0.0
2015-Aug-30 06:31N 63°41' E 009°40'0 0.0
2015-Aug-30 05:31N 63°41' E 009°40'0 0.0
2015-Aug-30 04:31N 63°41' E 009°40'0 0.0
2015-Aug-30 03:31N 63°41' E 009°40'0 0.0
2015-Aug-30 02:31N 63°41' E 009°40'0 0.0
2015-Aug-30 01:31N 63°41' E 009°40'0 0.0
2015-Aug-30 00:31N 63°41' E 009°40'0 0.0
2015-Aug-29 23:31N 63°41' E 009°40'0 0.0
2015-Aug-29 22:31N 63°41' E 009°40'0 0.0
2015-Aug-29 21:31N 63°41' E 009°40'0 0.0
2015-Aug-29 20:31N 63°41' E 009°40'0 0.0
2015-Aug-29 19:31N 63°41' E 009°40'0 0.0
2015-Aug-29 18:31N 63°41' E 009°40'0 0.0
2015-Aug-29 17:31N 63°41' E 009°40'0 0.0
2015-Aug-29 16:31N 63°41' E 009°40'0 0.0
2015-Aug-29 15:31N 63°41' E 009°40'0 0.0
2015-Aug-29 14:31N 63°41' E 009°40'0 0.0
2015-Aug-29 13:34N 63°41' E 009°40'0 0.0
2015-Aug-29 12:33N 63°41' E 009°40'0 0.0
2015-Aug-29 11:33N 63°41' E 009°40'0 0.0
2015-Aug-29 10:33N 63°41' E 009°40'0 0.0
2015-Aug-29 09:33N 63°41' E 009°40'0 0.0
2015-Aug-29 08:33N 63°41' E 009°40'0 0.0
2015-Aug-29 07:33N 63°41' E 009°40'0 0.0
2015-Aug-29 06:33N 63°41' E 009°40'0 0.0
2015-Aug-29 05:33N 63°41' E 009°40'0 0.0
2015-Aug-29 04:33N 63°41' E 009°40'0 0.0
2015-Aug-29 03:33N 63°41' E 009°40'0 0.0
2015-Aug-29 02:33N 63°41' E 009°40'0 0.0
2015-Aug-29 01:33N 63°41' E 009°40'0 0.0
2015-Aug-29 00:33N 63°41' E 009°40'0 0.0
2015-Aug-28 23:33N 63°41' E 009°40'0 0.0
2015-Aug-28 22:33N 63°41' E 009°40'0 0.0
2015-Aug-28 21:33N 63°41' E 009°40'0 0.0
2015-Aug-28 20:33N 63°41' E 009°40'0 0.0
2015-Aug-28 19:33N 63°41' E 009°40'0 0.0
2015-Aug-28 18:33N 63°41' E 009°40'0 0.0
2015-Aug-28 17:33N 63°41' E 009°40'2 2.5
2015-Aug-28 16:34N 63°39' E 009°41'0 0.1
2015-Aug-28 15:34N 63°39' E 009°41'0 0.2
2015-Aug-28 14:33N 63°39' E 009°41'0 0.3
2015-Aug-28 13:33N 63°39' E 009°41'0 0.2
2015-Aug-28 12:30N 63°38' E 009°41'0 0.0
2015-Aug-28 11:31N 63°38' E 009°41'0 0.2
2015-Aug-28 10:33N 63°39' E 009°41'0 0.1
2015-Aug-28 09:33N 63°38' E 009°41'0 0.4
2015-Aug-28 08:33N 63°39' E 009°41'0 0.2
2015-Aug-28 07:33N 63°39' E 009°41'0 0.2
2015-Aug-28 06:34N 63°39' E 009°41'2 2.5
2015-Aug-28 05:33N 63°41' E 009°40'0 0.0
2015-Aug-28 04:33N 63°41' E 009°40'0 0.0
2015-Aug-28 03:33N 63°41' E 009°40'0 0.0
2015-Aug-28 02:33N 63°41' E 009°40'0 0.0
2015-Aug-28 01:33N 63°41' E 009°40'0 0.0
2015-Aug-28 00:33N 63°41' E 009°40'0 0.0
2015-Aug-27 23:33N 63°41' E 009°40'0 0.0
2015-Aug-27 22:33N 63°41' E 009°40'0 0.0
2015-Aug-27 21:33N 63°41' E 009°40'0 0.0
2015-Aug-27 20:33N 63°41' E 009°40'0 0.0
2015-Aug-27 19:33N 63°41' E 009°40'0 0.0
2015-Aug-27 18:33N 63°41' E 009°40'0 0.0
2015-Aug-27 17:33N 63°41' E 009°40'0 0.0
2015-Aug-27 16:33N 63°41' E 009°40'2 2.5
2015-Aug-27 15:34N 63°39' E 009°41'0 0.2
2015-Aug-27 14:34N 63°39' E 009°41'0 0.0
2015-Aug-27 13:33N 63°39' E 009°41'0 0.3
2015-Aug-27 12:33N 63°38' E 009°41'0 0.4
2015-Aug-27 11:33N 63°39' E 009°41'0 0.3
2015-Aug-27 10:33N 63°38' E 009°41'0 0.2
2015-Aug-27 09:34N 63°39' E 009°41'0 0.1
2015-Aug-27 08:34N 63°39' E 009°41'0 0.1
2015-Aug-27 07:33N 63°39' E 009°41'0 0.1
2015-Aug-27 06:33N 63°39' E 009°41'0 0.1
2015-Aug-27 05:33N 63°38' E 009°41'3 2.8
2015-Aug-27 04:34N 63°41' E 009°40'0 0.0
2015-Aug-27 03:33N 63°41' E 009°40'0 0.0
2015-Aug-27 02:33N 63°41' E 009°40'0 0.0
2015-Aug-27 01:33N 63°41' E 009°40'0 0.0
2015-Aug-27 00:33N 63°41' E 009°40'0 0.0
2015-Aug-26 23:33N 63°41' E 009°40'0 0.0
2015-Aug-26 22:33N 63°41' E 009°40'0 0.0
2015-Aug-26 21:33N 63°41' E 009°40'0 0.0
2015-Aug-26 20:33N 63°41' E 009°40'0 0.0
2015-Aug-26 19:33N 63°41' E 009°40'0 0.0
2015-Aug-26 18:33N 63°41' E 009°40'0 0.0
2015-Aug-26 17:33N 63°41' E 009°40'0 0.4
2015-Aug-26 16:33N 63°41' E 009°41'3 2.5
2015-Aug-26 15:31N 63°38' E 009°41'0 0.4
2015-Aug-26 14:34N 63°39' E 009°41'0 0.0
2015-Aug-26 13:34N 63°39' E 009°41'0 0.1
2015-Aug-26 12:34N 63°39' E 009°41'0 0.1
2015-Aug-26 11:33N 63°39' E 009°41'0 0.1
2015-Aug-26 10:33N 63°39' E 009°41'0 0.2
2015-Aug-26 09:33N 63°38' E 009°41'0 0.2
2015-Aug-26 08:33N 63°39' E 009°41'0 0.2
2015-Aug-26 07:33N 63°39' E 009°41'0 0.2
2015-Aug-26 06:33N 63°39' E 009°41'0 0.0
2015-Aug-26 05:33N 63°39' E 009°41'3 2.7
2015-Aug-26 04:33N 63°41' E 009°40'0 0.0
2015-Aug-26 03:33N 63°41' E 009°40'0 0.0
2015-Aug-26 02:33N 63°41' E 009°40'0 0.0
2015-Aug-26 01:33N 63°41' E 009°40'0 0.0
2015-Aug-26 00:33N 63°41' E 009°40'0 0.0
2015-Aug-25 23:33N 63°41' E 009°40'0 0.0
2015-Aug-25 22:33N 63°41' E 009°40'0 0.0
2015-Aug-25 21:33N 63°41' E 009°40'0 0.0
2015-Aug-25 20:33N 63°41' E 009°40'0 0.0
2015-Aug-25 19:33N 63°41' E 009°40'0 0.0
2015-Aug-25 18:33N 63°41' E 009°40'0 0.0
2015-Aug-25 17:33N 63°41' E 009°40'0 0.0
2015-Aug-25 16:33N 63°41' E 009°40'2 2.4
2015-Aug-25 15:33N 63°39' E 009°41'0 0.2
2015-Aug-25 14:33N 63°39' E 009°41'0 0.1
2015-Aug-25 13:34N 63°39' E 009°41'0 0.3
2015-Aug-25 12:33N 63°38' E 009°41'0 0.3
2015-Aug-25 11:33N 63°39' E 009°41'0 0.1
2015-Aug-25 10:33N 63°39' E 009°41'0 0.0
2015-Aug-25 09:33N 63°39' E 009°41'0 0.1
2015-Aug-25 08:33N 63°39' E 009°41'0 0.1
2015-Aug-25 07:33N 63°39' E 009°41'0 0.1
2015-Aug-25 06:34N 63°39' E 009°41'0 0.1
2015-Aug-25 05:33N 63°39' E 009°41'3 2.6
2015-Aug-25 04:31N 63°41' E 009°40'0 0.0
2015-Aug-25 03:31N 63°41' E 009°40'0 0.0
2015-Aug-25 02:31N 63°41' E 009°40'0 0.0
2015-Aug-25 01:31N 63°41' E 009°40'0 0.0
2015-Aug-25 00:31N 63°41' E 009°40'0 0.0
2015-Aug-24 23:31N 63°41' E 009°40'0 0.0
2015-Aug-24 22:31N 63°41' E 009°40'0 0.0
2015-Aug-24 21:31N 63°41' E 009°40'0 0.0
2015-Aug-24 20:31N 63°41' E 009°40'0 0.0
2015-Aug-24 19:31N 63°41' E 009°40'0 0.0
2015-Aug-24 18:31N 63°41' E 009°40'0 0.0
2015-Aug-24 17:31N 63°41' E 009°40'0 0.0
2015-Aug-24 16:31N 63°41' E 009°40'3 2.7
2015-Aug-24 15:33N 63°39' E 009°41'0 0.0
2015-Aug-24 14:33N 63°39' E 009°41'0 0.3
2015-Aug-24 13:33N 63°39' E 009°41'0 0.2
2015-Aug-24 12:33N 63°39' E 009°41'0 0.0
2015-Aug-24 11:33N 63°39' E 009°41'0 0.0
2015-Aug-24 10:33N 63°39' E 009°41'0 0.1
2015-Aug-24 09:33N 63°39' E 009°41'0 0.0
2015-Aug-24 08:33N 63°39' E 009°41'0 0.0
2015-Aug-24 07:33N 63°39' E 009°41'0 0.1
2015-Aug-24 06:33N 63°39' E 009°41'0 0.1
2015-Aug-24 05:33N 63°39' E 009°41'1 1.4
2015-Aug-24 04:33N 63°40' E 009°41'1 1.2
2015-Aug-24 03:33N 63°41' E 009°40'0 0.0
2015-Aug-24 02:33N 63°41' E 009°40'0 0.0
2015-Aug-24 01:33N 63°41' E 009°40'0 0.0
2015-Aug-24 00:33N 63°41' E 009°40'0 0.0
2015-Aug-23 23:33N 63°41' E 009°40'0 0.0
2015-Aug-23 22:33N 63°41' E 009°40'0 0.0
2015-Aug-23 21:33N 63°41' E 009°40'0 0.0
2015-Aug-23 20:33N 63°41' E 009°40'0 0.0
2015-Aug-23 19:33N 63°41' E 009°40'0 0.0
2015-Aug-23 18:33N 63°41' E 009°40'3 2.9
2015-Aug-23 17:33N 63°38' E 009°41'0 0.2
2015-Aug-23 16:34N 63°38' E 009°41'0 0.1
2015-Aug-23 15:33N 63°39' E 009°41'0 0.0
2015-Aug-23 14:33N 63°39' E 009°41'  
Track history (hours):
 
Tides and Currents Weather Stations Pressure Air Temp Water Temp Dewpoint Dewpoint Depression Visibility Wind Speed Wind Dir Waves Ship Positions

Stallovarre

Last reported at 2015-Sep-02 14:33 UTC. Time now 2015-Sep-02 14:52 UTC.
Position N 63°39' E 009°41'.

Length 54 m; draft 3.5 m.

MMSI: 257374400.

Date/timePositionNaut miles runAvg speedWind from/ knotsBaromVisibWave heightAir tempDewpointWater temp
2015-Sep-02 14:33N 63°39' E 009°41'0 0.1
2015-Sep-02 13:33N 63°39' E 009°41'0 0.0
2015-Sep-02 12:33N 63°39' E 009°41'0 0.1
2015-Sep-02 11:34N 63°39' E 009°41'0 0.0
2015-Sep-02 10:33N 63°39' E 009°41'0 0.0
2015-Sep-02 09:34N 63°39' E 009°41'0 0.1
2015-Sep-02 08:33N 63°39' E 009°41'0 0.0
2015-Sep-02 07:33N 63°39' E 009°41'0 0.0
2015-Sep-02 06:33N 63°39' E 009°41'0 0.1
2015-Sep-02 05:34N 63°39' E 009°41'3 2.6
2015-Sep-02 04:33N 63°41' E 009°40'0 0.0
2015-Sep-02 03:33N 63°41' E 009°40'0 0.0
2015-Sep-02 02:33N 63°41' E 009°40'0 0.0
2015-Sep-02 01:33N 63°41' E 009°40'0 0.0
2015-Sep-02 00:33N 63°41' E 009°40'0 0.0
2015-Sep-01 23:33N 63°41' E 009°40'0 0.0
2015-Sep-01 22:33N 63°41' E 009°40'0 0.0
2015-Sep-01 21:33N 63°41' E 009°40'0 0.0
2015-Sep-01 20:33N 63°41' E 009°40'0 0.0
2015-Sep-01 19:33N 63°41' E 009°40'0 0.0
2015-Sep-01 18:32N 63°41' E 009°40'0 0.0
2015-Sep-01 17:32N 63°41' E 009°40'0 0.0
2015-Sep-01 16:32N 63°41' E 009°40'2 2.5
2015-Sep-01 15:33N 63°39' E 009°41'0 0.0
2015-Sep-01 14:33N 63°39' E 009°41'0 0.0
2015-Sep-01 13:33N 63°39' E 009°41'0 0.0
2015-Sep-01 12:34N 63°39' E 009°41'0 0.1
2015-Sep-01 11:33N 63°39' E 009°41'0 0.2
2015-Sep-01 10:33N 63°38' E 009°41'0 0.4
2015-Sep-01 09:33N 63°39' E 009°41'0 0.2
2015-Sep-01 08:33N 63°39' E 009°41'0 0.0
2015-Sep-01 07:33N 63°39' E 009°41'0 0.1
2015-Sep-01 06:34N 63°39' E 009°41'0 0.0
2015-Sep-01 05:33N 63°39' E 009°41'3 2.5
2015-Sep-01 04:33N 63°41' E 009°40'0 0.0
2015-Sep-01 03:33N 63°41' E 009°40'0 0.0
2015-Sep-01 02:33N 63°41' E 009°40'0 0.0
2015-Sep-01 01:33N 63°41' E 009°40'0 0.0
2015-Sep-01 00:33N 63°41' E 009°40'0 0.0
2015-Aug-31 23:33N 63°41' E 009°40'0 0.0
2015-Aug-31 22:33N 63°41' E 009°40'0 0.0
2015-Aug-31 21:33N 63°41' E 009°40'0 0.0
2015-Aug-31 20:33N 63°41' E 009°40'0 0.0
2015-Aug-31 19:33N 63°41' E 009°40'0 0.0
2015-Aug-31 18:33N 63°41' E 009°40'0 0.0
2015-Aug-31 17:33N 63°41' E 009°40'0 0.0
2015-Aug-31 16:33N 63°41' E 009°40'2 2.5
2015-Aug-31 15:34N 63°39' E 009°41'0 0.0
2015-Aug-31 14:33N 63°39' E 009°41'0 0.0
2015-Aug-31 13:33N 63°39' E 009°41'0 0.1
2015-Aug-31 12:33N 63°39' E 009°41'0 0.2
2015-Aug-31 11:33N 63°39' E 009°41'0 0.2
2015-Aug-31 10:33N 63°39' E 009°41'0 0.0
2015-Aug-31 09:34N 63°39' E 009°41'0 0.1
2015-Aug-31 08:34N 63°39' E 009°41'0 0.0
2015-Aug-31 07:33N 63°39' E 009°41'0 0.0
2015-Aug-31 06:33N 63°39' E 009°41'0 0.2
2015-Aug-31 05:33N 63°39' E 009°41'1 0.9
2015-Aug-31 04:33N 63°39' E 009°41'2 1.8
2015-Aug-31 03:33N 63°41' E 009°40'0 0.0
2015-Aug-31 02:33N 63°41' E 009°40'0 0.0
2015-Aug-31 01:33N 63°41' E 009°40'0 0.0
2015-Aug-31 00:33N 63°41' E 009°40'0 0.0
2015-Aug-30 23:33N 63°41' E 009°40'0 0.0
2015-Aug-30 22:33N 63°41' E 009°40'0 0.0
2015-Aug-30 21:33N 63°41' E 009°40'0 0.0
2015-Aug-30 20:33N 63°41' E 009°40'0 0.0
2015-Aug-30 19:33N 63°41' E 009°40'0 0.0
2015-Aug-30 18:33N 63°41' E 009°40'3 2.6
2015-Aug-30 17:34N 63°39' E 009°41'0 0.2
2015-Aug-30 16:33N 63°38' E 009°41'0 0.1
2015-Aug-30 15:33N 63°39' E 009°41'0 0.2
2015-Aug-30 14:33N 63°39' E 009°41'0 0.1
2015-Aug-30 13:33N 63°39' E 009°41'0 0.0
2015-Aug-30 12:33N 63°39' E 009°41'3 2.5
2015-Aug-30 11:31N 63°41' E 009°40'0 0.0
2015-Aug-30 10:31N 63°41' E 009°40'0 0.0
2015-Aug-30 09:31N 63°41' E 009°40'0 0.0
2015-Aug-30 08:31N 63°41' E 009°40'0 0.0
2015-Aug-30 07:31N 63°41' E 009°40'0 0.0
2015-Aug-30 06:31N 63°41' E 009°40'0 0.0
2015-Aug-30 05:31N 63°41' E 009°40'0 0.0
2015-Aug-30 04:31N 63°41' E 009°40'0 0.0
2015-Aug-30 03:31N 63°41' E 009°40'0 0.0
2015-Aug-30 02:31N 63°41' E 009°40'0 0.0
2015-Aug-30 01:31N 63°41' E 009°40'0 0.0
2015-Aug-30 00:31N 63°41' E 009°40'0 0.0
2015-Aug-29 23:31N 63°41' E 009°40'0 0.0
2015-Aug-29 22:31N 63°41' E 009°40'0 0.0
2015-Aug-29 21:31N 63°41' E 009°40'0 0.0
2015-Aug-29 20:31N 63°41' E 009°40'0 0.0
2015-Aug-29 19:31N 63°41' E 009°40'0 0.0
2015-Aug-29 18:31N 63°41' E 009°40'0 0.0
2015-Aug-29 17:31N 63°41' E 009°40'0 0.0
2015-Aug-29 16:31N 63°41' E 009°40'0 0.0
2015-Aug-29 15:31N 63°41' E 009°40'0 0.0
2015-Aug-29 14:31N 63°41' E 009°40'0 0.0
2015-Aug-29 13:34N 63°41' E 009°40'0 0.0
2015-Aug-29 12:33N 63°41' E 009°40'0 0.0
2015-Aug-29 11:33N 63°41' E 009°40'0 0.0
2015-Aug-29 10:33N 63°41' E 009°40'0 0.0
2015-Aug-29 09:33N 63°41' E 009°40'0 0.0
2015-Aug-29 08:33N 63°41' E 009°40'0 0.0
2015-Aug-29 07:33N 63°41' E 009°40'0 0.0
2015-Aug-29 06:33N 63°41' E 009°40'0 0.0
2015-Aug-29 05:33N 63°41' E 009°40'0 0.0
2015-Aug-29 04:33N 63°41' E 009°40'0 0.0
2015-Aug-29 03:33N 63°41' E 009°40'0 0.0
2015-Aug-29 02:33N 63°41' E 009°40'0 0.0
2015-Aug-29 01:33N 63°41' E 009°40'0 0.0
2015-Aug-29 00:33N 63°41' E 009°40'0 0.0
2015-Aug-28 23:33N 63°41' E 009°40'0 0.0
2015-Aug-28 22:33N 63°41' E 009°40'0 0.0
2015-Aug-28 21:33N 63°41' E 009°40'0 0.0
2015-Aug-28 20:33N 63°41' E 009°40'0 0.0
2015-Aug-28 19:33N 63°41' E 009°40'0 0.0
2015-Aug-28 18:33N 63°41' E 009°40'0 0.0
2015-Aug-28 17:33N 63°41' E 009°40'2 2.5
2015-Aug-28 16:34N 63°39' E 009°41'0 0.1
2015-Aug-28 15:34N 63°39' E 009°41'0 0.2
2015-Aug-28 14:33N 63°39' E 009°41'0 0.3
2015-Aug-28 13:33N 63°39' E 009°41'0 0.2
2015-Aug-28 12:30N 63°38' E 009°41'0 0.0
2015-Aug-28 11:31N 63°38' E 009°41'0 0.2
2015-Aug-28 10:33N 63°39' E 009°41'0 0.1
2015-Aug-28 09:33N 63°38' E 009°41'0 0.4
2015-Aug-28 08:33N 63°39' E 009°41'0 0.2
2015-Aug-28 07:33N 63°39' E 009°41'0 0.2
2015-Aug-28 06:34N 63°39' E 009°41'2 2.5
2015-Aug-28 05:33N 63°41' E 009°40'0 0.0
2015-Aug-28 04:33N 63°41' E 009°40'0 0.0
2015-Aug-28 03:33N 63°41' E 009°40'0 0.0
2015-Aug-28 02:33N 63°41' E 009°40'0 0.0
2015-Aug-28 01:33N 63°41' E 009°40'0 0.0
2015-Aug-28 00:33N 63°41' E 009°40'0 0.0
2015-Aug-27 23:33N 63°41' E 009°40'0 0.0
2015-Aug-27 22:33N 63°41' E 009°40'0 0.0
2015-Aug-27 21:33N 63°41' E 009°40'0 0.0
2015-Aug-27 20:33N 63°41' E 009°40'0 0.0
2015-Aug-27 19:33N 63°41' E 009°40'0 0.0
2015-Aug-27 18:33N 63°41' E 009°40'0 0.0
2015-Aug-27 17:33N 63°41' E 009°40'0 0.0
2015-Aug-27 16:33N 63°41' E 009°40'2 2.5
2015-Aug-27 15:34N 63°39' E 009°41'0 0.2
2015-Aug-27 14:34N 63°39' E 009°41'0 0.0
2015-Aug-27 13:33N 63°39' E 009°41'0 0.3
2015-Aug-27 12:33N 63°38' E 009°41'0 0.4
2015-Aug-27 11:33N 63°39' E 009°41'0 0.3
2015-Aug-27 10:33N 63°38' E 009°41'0 0.2
2015-Aug-27 09:34N 63°39' E 009°41'0 0.1
2015-Aug-27 08:34N 63°39' E 009°41'0 0.1
2015-Aug-27 07:33N 63°39' E 009°41'0 0.1
2015-Aug-27 06:33N 63°39' E 009°41'0 0.1
2015-Aug-27 05:33N 63°38' E 009°41'3 2.8
2015-Aug-27 04:34N 63°41' E 009°40'0 0.0
2015-Aug-27 03:33N 63°41' E 009°40'0 0.0
2015-Aug-27 02:33N 63°41' E 009°40'0 0.0
2015-Aug-27 01:33N 63°41' E 009°40'0 0.0
2015-Aug-27 00:33N 63°41' E 009°40'0 0.0
2015-Aug-26 23:33N 63°41' E 009°40'0 0.0
2015-Aug-26 22:33N 63°41' E 009°40'0 0.0
2015-Aug-26 21:33N 63°41' E 009°40'0 0.0
2015-Aug-26 20:33N 63°41' E 009°40'0 0.0
2015-Aug-26 19:33N 63°41' E 009°40'0 0.0
2015-Aug-26 18:33N 63°41' E 009°40'0 0.0
2015-Aug-26 17:33N 63°41' E 009°40'0 0.4
2015-Aug-26 16:33N 63°41' E 009°41'3 2.5
2015-Aug-26 15:31N 63°38' E 009°41'0 0.4
2015-Aug-26 14:34N 63°39' E 009°41'0 0.0
2015-Aug-26 13:34N 63°39' E 009°41'0 0.1
2015-Aug-26 12:34N 63°39' E 009°41'0 0.1
2015-Aug-26 11:33N 63°39' E 009°41'0 0.1
2015-Aug-26 10:33N 63°39' E 009°41'0 0.2
2015-Aug-26 09:33N 63°38' E 009°41'0 0.2
2015-Aug-26 08:33N 63°39' E 009°41'0 0.2
2015-Aug-26 07:33N 63°39' E 009°41'0 0.2
2015-Aug-26 06:33N 63°39' E 009°41'0 0.0
2015-Aug-26 05:33N 63°39' E 009°41'3 2.7
2015-Aug-26 04:33N 63°41' E 009°40'0 0.0
2015-Aug-26 03:33N 63°41' E 009°40'0 0.0
2015-Aug-26 02:33N 63°41' E 009°40'0 0.0
2015-Aug-26 01:33N 63°41' E 009°40'0 0.0
2015-Aug-26 00:33N 63°41' E 009°40'0 0.0
2015-Aug-25 23:33N 63°41' E 009°40'0 0.0
2015-Aug-25 22:33N 63°41' E 009°40'0 0.0
2015-Aug-25 21:33N 63°41' E 009°40'0 0.0
2015-Aug-25 20:33N 63°41' E 009°40'0 0.0
2015-Aug-25 19:33N 63°41' E 009°40'0 0.0
2015-Aug-25 18:33N 63°41' E 009°40'0 0.0
2015-Aug-25 17:33N 63°41' E 009°40'0 0.0
2015-Aug-25 16:33N 63°41' E 009°40'2 2.4
2015-Aug-25 15:33N 63°39' E 009°41'0 0.2
2015-Aug-25 14:33N 63°39' E 009°41'0 0.1
2015-Aug-25 13:34N 63°39' E 009°41'0 0.3
2015-Aug-25 12:33N 63°38' E 009°41'0 0.3
2015-Aug-25 11:33N 63°39' E 009°41'0 0.1
2015-Aug-25 10:33N 63°39' E 009°41'0 0.0
2015-Aug-25 09:33N 63°39' E 009°41'0 0.1
2015-Aug-25 08:33N 63°39' E 009°41'0 0.1
2015-Aug-25 07:33N 63°39' E 009°41'0 0.1
2015-Aug-25 06:34N 63°39' E 009°41'0 0.1
2015-Aug-25 05:33N 63°39' E 009°41'3 2.6
2015-Aug-25 04:31N 63°41' E 009°40'0 0.0
2015-Aug-25 03:31N 63°41' E 009°40'0 0.0
2015-Aug-25 02:31N 63°41' E 009°40'0 0.0
2015-Aug-25 01:31N 63°41' E 009°40'0 0.0
2015-Aug-25 00:31N 63°41' E 009°40'0 0.0
2015-Aug-24 23:31N 63°41' E 009°40'0 0.0
2015-Aug-24 22:31N 63°41' E 009°40'0 0.0
2015-Aug-24 21:31N 63°41' E 009°40'0 0.0
2015-Aug-24 20:31N 63°41' E 009°40'0 0.0
2015-Aug-24 19:31N 63°41' E 009°40'0 0.0
2015-Aug-24 18:31N 63°41' E 009°40'0 0.0
2015-Aug-24 17:31N 63°41' E 009°40'0 0.0
2015-Aug-24 16:31N 63°41' E 009°40'3 2.7
2015-Aug-24 15:33N 63°39' E 009°41'0 0.0
2015-Aug-24 14:33N 63°39' E 009°41'0 0.3
2015-Aug-24 13:33N 63°39' E 009°41'0 0.2
2015-Aug-24 12:33N 63°39' E 009°41'0 0.0
2015-Aug-24 11:33N 63°39' E 009°41'0 0.0
2015-Aug-24 10:33N 63°39' E 009°41'0 0.1
2015-Aug-24 09:33N 63°39' E 009°41'0 0.0
2015-Aug-24 08:33N 63°39' E 009°41'0 0.0
2015-Aug-24 07:33N 63°39' E 009°41'0 0.1
2015-Aug-24 06:33N 63°39' E 009°41'0 0.1
2015-Aug-24 05:33N 63°39' E 009°41'1 1.4
2015-Aug-24 04:33N 63°40' E 009°41'1 1.2
2015-Aug-24 03:33N 63°41' E 009°40'0 0.0
2015-Aug-24 02:33N 63°41' E 009°40'0 0.0
2015-Aug-24 01:33N 63°41' E 009°40'0 0.0
2015-Aug-24 00:33N 63°41' E 009°40'0 0.0
2015-Aug-23 23:33N 63°41' E 009°40'0 0.0
2015-Aug-23 22:33N 63°41' E 009°40'0 0.0
2015-Aug-23 21:33N 63°41' E 009°40'0 0.0
2015-Aug-23 20:33N 63°41' E 009°40'0 0.0
2015-Aug-23 19:33N 63°41' E 009°40'0 0.0
2015-Aug-23 18:33N 63°41' E 009°40'3 2.9
2015-Aug-23 17:33N 63°38' E 009°41'0 0.2
2015-Aug-23 16:34N 63°38' E 009°41'0 0.1
2015-Aug-23 15:33N 63°39' E 009°41'0 0.0
2015-Aug-23 14:33N 63°39' E 009°41'  

Dump ship's entire track history